createdAt,value
2022-09-28T00:14:52.741Z,4.1
2022-09-28T00:30:35.185Z,3.6
2022-09-28T00:46:17.945Z,3.5
2022-09-28T01:02:00.637Z,3.1
2022-09-28T01:17:42.808Z,3.4
2022-09-28T01:33:25.533Z,3.1
2022-09-28T01:49:08.320Z,3.2
2022-09-28T02:04:50.554Z,3.5
2022-09-28T02:20:33.407Z,5.8
2022-09-28T02:36:15.954Z,4.6
2022-09-28T02:51:58.866Z,4.69
2022-09-28T03:07:41.795Z,4.5
2022-09-28T03:23:24.739Z,5
2022-09-28T03:39:07.502Z,5.1
2022-09-28T03:54:49.747Z,5.4
2022-09-28T04:10:31.946Z,6.1
2022-09-28T04:26:14.957Z,6.9
2022-09-28T04:41:57.099Z,6.6
2022-09-28T04:57:39.756Z,6.6
2022-09-28T05:13:22.511Z,6.5
2022-09-28T05:29:05.148Z,5.6
2022-09-28T05:44:47.644Z,5.2
2022-09-28T06:00:29.879Z,5.5
2022-09-28T06:16:12.153Z,6.8
2022-09-28T06:31:54.629Z,6.1
2022-09-28T06:47:37.099Z,5.8
2022-09-28T07:03:19.491Z,5.9
2022-09-28T07:19:01.851Z,5.5
2022-09-28T07:34:44.917Z,5.4
2022-09-28T07:50:27.942Z,4.69
2022-09-28T08:06:10.545Z,3.8
2022-09-28T08:21:53.365Z,4.19
2022-09-28T08:37:35.552Z,4.3
2022-09-28T08:53:17.757Z,2.7
2022-09-28T09:09:00.552Z,1.7
2022-09-28T09:24:43.178Z,1.2
2022-09-28T09:40:25.760Z,1.9
2022-09-28T09:56:07.985Z,0.8
2022-09-28T10:11:50.729Z,0.9
2022-09-28T10:27:33.652Z,1.2
2022-09-28T10:43:15.907Z,1.5
2022-09-28T10:44:03.202Z,2.3
2022-09-28T10:59:45.231Z,2.2
2022-09-28T11:15:27.503Z,1.8
2022-09-28T11:31:09.851Z,1.8
2022-09-28T11:46:52.156Z,1.6
2022-09-28T12:02:34.602Z,2
2022-09-28T12:18:16.763Z,1.5
2022-09-28T12:33:59.260Z,1.2
2022-09-28T12:49:41.590Z,1.4
2022-09-28T13:05:24.215Z,1.4
2022-09-28T13:21:07.110Z,1.7
2022-09-28T13:36:49.821Z,1
2022-09-28T13:52:32.098Z,1.2
2022-09-28T14:08:14.946Z,2.5
2022-09-28T14:23:57.658Z,1.4
2022-09-28T14:39:40.074Z,1.8
2022-09-28T14:55:22.393Z,1.1
2022-09-28T15:11:04.664Z,3.1
2022-09-28T15:26:47.475Z,1
2022-09-28T15:42:30.399Z,0.7
2022-09-28T15:58:12.563Z,3.4
2022-09-28T16:13:55.195Z,1.2
2022-09-28T16:29:37.287Z,1.4
2022-09-28T16:45:19.410Z,1.7
2022-09-28T17:01:01.747Z,2.8
2022-09-28T17:16:44.300Z,3.2
2022-09-28T17:32:27.128Z,4.19
2022-09-28T17:48:09.758Z,4.1
2022-09-28T18:03:52.221Z,4.9
2022-09-28T18:19:35.227Z,5.1
2022-09-28T18:35:18.178Z,6.4
2022-09-28T18:51:00.629Z,6.1
2022-09-28T19:06:43.002Z,6.3
2022-09-28T19:22:25.407Z,7.6
2022-09-28T19:38:08.511Z,13
2022-09-28T19:53:51.106Z,7.5
2022-09-28T20:09:34.087Z,13.4
2022-09-28T20:25:16.989Z,12
2022-09-28T20:40:59.332Z,12
2022-09-28T20:56:41.626Z,12.4
2022-09-28T21:12:23.989Z,11.9
2022-09-28T21:28:06.331Z,13.1
2022-09-28T21:43:49.431Z,13.3
2022-09-28T21:59:32.007Z,15.5
2022-09-28T22:15:14.362Z,10.9
2022-09-28T22:30:57.473Z,11
2022-09-28T22:46:40.257Z,9.39
2022-09-28T23:02:22.711Z,8.89
2022-09-28T23:18:05.366Z,8.39
2022-09-28T23:33:48.043Z,8.7
2022-09-28T23:49:30.225Z,8.39
